East Greenbush, New York
Current Conditions -  °F | °C
As of 7:38 AM on Monday 24 Nov 2014 (Local Time) from KALB Reporting Station
Light Rain Light Rain  
Wind Chill: 51°   Ceiling: 800
Heat Index: 51°   Visibility: 1mi
Dew Point: 49°   Wind: 0mph
Humidity: 92%   Direction: NA
Pressure: 29.6"   Gusts: NA
Location:  42.59°N, 73.7°W
Report Text: KALB 241238Z 00000KT 1SM R01/6000VP6000FT -RA BR SCT003 BKN008 OVC018 11/09 A2960 RMK AO2 SFC VIS 1 1/4 DZE15RAB15 P0004 T01060094
Loading
Personal Weather Stations






























Interactive Weather Map New forecast layout! Learn more

10-Day Weather Forecast

Advertisements
Track Severe Weather on mobile